Time;durP1;ratioP1;P1;durP2;ratioP2;P2;SDS_P1;SDS_P2;PMS_P1;PMS_P2;Temp;Humidity;BMP_temperature;BMP_pressure;BME280_temperature;BME280_humidity;BME280_pressure;Samples;Min_cycle;Max_cycle;Signal;HPM_P1;HPM_P2
2023/06/03 00:00:28;;;;;;;0.20;0.20;;;12.60;94.20;;;;;;4841205;29;20053;-75
2023/06/03 00:02:56;;;;;;;0.10;0.10;;;12.70;94.20;;;;;;4846124;29;20046;-75
2023/06/03 00:05:22;;;;;;;0.20;0.20;;;12.60;94.30;;;;;;4829702;29;20074;-75
2023/06/03 00:07:48;;;;;;;0.20;0.20;;;12.60;94.50;;;;;;4841213;29;20089;-75
2023/06/03 00:10:14;;;;;;;0.10;0.10;;;12.50;94.30;;;;;;4816459;29;20573;-74
2023/06/03 00:12:40;;;;;;;0.10;0.10;;;12.50;94.40;;;;;;4836873;29;20054;-75
2023/06/03 00:15:07;;;;;;;0.20;0.20;;;12.50;94.40;;;;;;4825994;29;20034;-75
2023/06/03 00:17:33;;;;;;;0.20;0.20;;;12.50;94.30;;;;;;4823537;29;20064;-74
2023/06/03 00:20:05;;;;;;;0.10;0.10;;;12.40;94.30;;;;;;4841810;29;20045;-75
2023/06/03 00:22:40;;;;;;;0.20;0.20;;;12.40;94.30;;;;;;4843778;29;20066;-75
2023/06/03 00:25:07;;;;;;;0.20;0.20;;;12.40;94.30;;;;;;4824379;29;20178;-74
2023/06/03 00:27:36;;;;;;;0.20;0.20;;;12.40;94.40;;;;;;4839922;29;20128;-74
2023/06/03 00:30:06;;;;;;;0.10;0.10;;;12.30;94.40;;;;;;4836501;29;20164;-74
2023/06/03 00:32:33;;;;;;;0.20;0.20;;;12.30;94.40;;;;;;4806490;29;20125;-75
2023/06/03 00:34:58;;;;;;;0.20;0.20;;;12.30;94.20;;;;;;4837368;29;20134;-74
2023/06/03 00:37:25;;;;;;;0.20;0.20;;;12.20;94.30;;;;;;4824455;29;20098;-74
2023/06/03 00:39:50;;;;;;;0.20;0.20;;;12.20;94.30;;;;;;4838388;29;20042;-74
2023/06/03 00:42:16;;;;;;;0.20;0.20;;;12.20;94.30;;;;;;4839976;29;20101;-74
2023/06/03 00:44:42;;;;;;;0.10;0.10;;;12.10;94.30;;;;;;4825348;29;20045;-74
2023/06/03 00:47:08;;;;;;;0.10;0.10;;;12.10;94.30;;;;;;4842621;29;20049;-74
2023/06/03 00:49:34;;;;;;;0.10;0.10;;;12.10;94.30;;;;;;4839190;29;20056;-75
2023/06/03 00:52:02;;;;;;;0.13;0.13;;;12.00;94.30;;;;;;4823357;29;20478;-74
2023/06/03 00:54:28;;;;;;;0.20;0.20;;;12.00;94.40;;;;;;4839762;29;20042;-75
2023/06/03 00:56:56;;;;;;;0.17;0.17;;;12.00;94.50;;;;;;4839684;29;20053;-75
2023/06/03 00:59:22;;;;;;;0.20;0.20;;;11.90;94.40;;;;;;4837840;29;20046;-75
2023/06/03 01:01:47;;;;;;;0.10;0.10;;;11.80;94.40;;;;;;4840447;29;20280;-75
2023/06/03 01:04:17;;;;;;;0.20;0.20;;;11.90;94.60;;;;;;4838532;29;20073;-75
2023/06/03 01:07:01;;;;;;;0.20;0.20;;;11.90;94.70;;;;;;4839319;29;20174;-75
2023/06/03 01:09:56;;;;;;;0.20;0.20;;;11.80;94.60;;;;;;4824607;29;20058;-75
2023/06/03 01:12:31;;;;;;;0.20;0.20;;;11.80;94.60;;;;;;4840499;29;20546;-75
2023/06/03 01:15:03;;;;;;;0.20;0.20;;;11.80;94.70;;;;;;4837812;29;20057;-75
2023/06/03 01:17:35;;;;;;;0.10;0.10;;;11.80;94.70;;;;;;4823314;29;20077;-74
2023/06/03 01:20:01;;;;;;;;;;;11.70;94.60;;;;;;4838525;29;20042;-75
2023/06/03 01:22:28;;;;;;;0.20;0.20;;;11.70;94.70;;;;;;4841114;29;19975;-75
2023/06/03 01:25:15;;;;;;;0.13;0.13;;;11.70;94.60;;;;;;4837654;29;20108;-75
2023/06/03 01:27:41;;;;;;;0.20;0.20;;;11.60;94.50;;;;;;4835902;29;20439;-75
2023/06/03 01:30:14;;;;;;;0.20;0.20;;;11.60;94.50;;;;;;4833337;29;20050;-75
2023/06/03 01:32:42;;;;;;;0.15;0.15;;;11.60;94.40;;;;;;4837870;29;20042;-75
2023/06/03 01:35:10;;;;;;;0.20;0.20;;;11.60;94.30;;;;;;4838251;29;20041;-75
2023/06/03 01:37:36;;;;;;;0.10;0.10;;;11.40;93.90;;;;;;4839791;29;20037;-75
2023/06/03 01:40:04;;;;;;;0.20;0.20;;;11.50;94.20;;;;;;4840450;29;20042;-75
2023/06/03 01:42:30;;;;;;;0.20;0.20;;;11.30;94.20;;;;;;4826044;29;20348;-75
2023/06/03 01:45:00;;;;;;;0.20;0.20;;;11.30;94.30;;;;;;4839335;29;20133;-75
2023/06/03 01:47:26;;;;;;;0.20;0.20;;;11.30;94.40;;;;;;4837493;29;20061;-75
2023/06/03 01:49:53;;;;;;;0.20;0.20;;;11.20;94.40;;;;;;4840539;29;20046;-75
2023/06/03 01:52:19;;;;;;;0.20;0.20;;;11.20;94.80;;;;;;4840271;29;20506;-74
2023/06/03 01:54:45;;;;;;;0.20;0.20;;;11.20;94.70;;;;;;4857730;29;20056;-74
2023/06/03 01:57:11;;;;;;;0.20;0.20;;;11.20;94.80;;;;;;4851934;29;20053;-75
2023/06/03 01:59:37;;;;;;;0.10;0.10;;;11.20;94.90;;;;;;4858191;29;20049;-77
2023/06/03 02:02:03;;;;;;;0.10;0.10;;;11.10;94.90;;;;;;4852606;29;20061;-75
2023/06/03 02:04:28;;;;;;;0.20;0.20;;;11.10;94.90;;;;;;4837504;29;20053;-75
2023/06/03 02:06:58;;;;;;;0.17;0.17;;;11.10;95.00;;;;;;4839990;29;20455;-75
2023/06/03 02:09:25;;;;;;;0.20;0.20;;;11.10;95.10;;;;;;4853434;29;20058;-74
2023/06/03 02:11:52;;;;;;;0.20;0.20;;;11.10;95.10;;;;;;4841174;29;20729;-75
2023/06/03 02:14:18;;;;;;;0.20;0.20;;;11.10;95.20;;;;;;4835604;29;20061;-74
2023/06/03 02:16:43;;;;;;;0.20;0.20;;;11.40;95.30;;;;;;4837805;29;20062;-74
2023/06/03 02:19:19;;;;;;;0.20;0.20;;;11.10;95.30;;;;;;4838200;29;20049;-74
2023/06/03 02:21:45;;;;;;;0.20;0.20;;;11.10;95.20;;;;;;4839679;29;20117;-74
2023/06/03 02:24:14;;;;;;;0.20;0.20;;;11.10;95.30;;;;;;4839091;29;20393;-75
2023/06/03 02:26:49;;;;;;;0.10;0.10;;;11.10;95.30;;;;;;4824986;29;20089;-74
2023/06/03 02:29:23;;;;;;;0.10;0.10;;;11.20;95.40;;;;;;4825241;29;20053;-74
2023/06/03 02:31:50;;;;;;;0.10;0.10;;;11.20;95.50;;;;;;4838007;29;20048;-76
2023/06/03 02:34:16;;;;;;;0.20;0.20;;;11.20;95.40;;;;;;4824969;29;20085;-74
2023/06/03 02:36:43;;;;;;;0.20;0.20;;;11.10;95.40;;;;;;4827371;29;20050;-74
2023/06/03 02:39:10;;;;;;;0.20;0.20;;;11.10;95.40;;;;;;4839362;29;20045;-75
2023/06/03 02:41:36;;;;;;;0.20;0.20;;;11.10;95.40;;;;;;4832301;29;20050;-74
2023/06/03 02:44:03;;;;;;;0.20;0.20;;;11.10;95.40;;;;;;4850323;29;20110;-75
2023/06/03 02:46:29;;;;;;;0.20;0.20;;;11.10;95.40;;;;;;4838539;29;20046;-75
2023/06/03 02:48:55;;;;;;;0.20;0.20;;;11.20;95.40;;;;;;4838337;29;20042;-74
2023/06/03 02:51:21;;;;;;;0.20;0.20;;;11.10;95.40;;;;;;4814439;29;20058;-75
2023/06/03 02:53:46;;;;;;;0.20;0.20;;;11.10;95.40;;;;;;4849406;29;20060;-75
2023/06/03 02:56:12;;;;;;;0.20;0.20;;;11.10;95.40;;;;;;4843802;29;20076;-75
2023/06/03 02:58:39;;;;;;;0.10;0.10;;;11.10;95.40;;;;;;4824359;29;20050;-75
2023/06/03 03:01:05;;;;;;;0.10;0.10;;;11.10;95.40;;;;;;4838266;29;20045;-75
2023/06/03 03:03:35;;;;;;;0.10;0.10;;;11.10;95.30;;;;;;4836387;29;20482;-75
2023/06/03 03:06:06;;;;;;;0.20;0.20;;;11.10;95.30;;;;;;4846197;29;20402;-75
2023/06/03 03:08:33;;;;;;;0.20;0.20;;;11.10;95.40;;;;;;4820716;29;20077;-75
2023/06/03 03:10:59;;;;;;;0.13;0.13;;;11.10;95.40;;;;;;4820867;29;20512;-75
2023/06/03 03:13:24;;;;;;;0.15;0.15;;;11.10;95.40;;;;;;4837768;29;20125;-75
2023/06/03 03:15:50;;;;;;;0.20;0.20;;;11.10;95.30;;;;;;4838246;29;20141;-75
2023/06/03 03:18:16;;;;;;;0.20;0.20;;;11.10;95.40;;;;;;4837289;29;20689;-75
2023/06/03 03:20:42;;;;;;;0.10;0.10;;;11.10;95.40;;;;;;4838117;29;20046;-75
2023/06/03 03:23:08;;;;;;;0.20;0.20;;;11.10;95.40;;;;;;4820962;29;20065;-75
2023/06/03 03:25:34;;;;;;;0.20;0.20;;;11.10;95.40;;;;;;4839037;29;20385;-75
2023/06/03 03:28:00;;;;;;;0.10;0.10;;;11.10;95.40;;;;;;4821012;29;20061;-75
2023/06/03 03:30:26;;;;;;;0.20;0.20;;;11.10;95.40;;;;;;4837280;29;20054;-75
2023/06/03 03:32:51;;;;;;;0.20;0.20;;;11.00;95.40;;;;;;4823343;29;20178;-75
2023/06/03 03:35:20;;;;;;;0.20;0.20;;;11.00;95.40;;;;;;4835096;29;20144;-75
2023/06/03 03:37:49;;;;;;;0.20;0.20;;;11.00;95.40;;;;;;4841274;29;20056;-74
2023/06/03 03:40:22;;;;;;;0.10;0.10;;;11.00;95.50;;;;;;4824412;29;20050;-75
2023/06/03 03:42:52;;;;;;;0.20;0.20;;;11.10;95.60;;;;;;4831501;29;20045;-75
2023/06/03 03:45:25;;;;;;;0.10;0.10;;;11.00;95.50;;;;;;4840032;29;20042;-75
2023/06/03 03:47:52;;;;;;;0.20;0.20;;;11.00;95.50;;;;;;4839363;29;20058;-75
2023/06/03 03:50:27;;;;;;;0.10;0.10;;;11.00;95.50;;;;;;4823566;29;20132;-75
2023/06/03 03:53:01;;;;;;;0.10;0.10;;;11.00;95.50;;;;;;4828025;29;20294;-75
2023/06/03 03:55:27;;;;;;;0.10;0.10;;;11.00;95.50;;;;;;4823494;29;20065;-75
2023/06/03 03:57:52;;;;;;;0.20;0.20;;;11.00;95.50;;;;;;4829191;29;20063;-75
2023/06/03 04:00:21;;;;;;;0.20;0.20;;;11.00;95.60;;;;;;4846027;29;20137;-75
2023/06/03 04:02:47;;;;;;;0.20;0.20;;;11.00;95.60;;;;;;4826121;29;20117;-74
2023/06/03 04:05:16;;;;;;;0.10;0.10;;;11.00;95.60;;;;;;4841401;29;20056;-75
2023/06/03 04:07:43;;;;;;;0.20;0.20;;;11.00;95.60;;;;;;4825053;29;20114;-75
2023/06/03 04:10:11;;;;;;;0.13;0.13;;;11.00;95.60;;;;;;4839333;29;20471;-75
2023/06/03 04:12:36;;;;;;;0.20;0.20;;;11.00;95.60;;;;;;4824214;29;20072;-75
2023/06/03 04:15:03;;;;;;;0.20;0.20;;;11.10;95.70;;;;;;4840444;29;20053;-74
2023/06/03 04:17:30;;;;;;;0.20;0.20;;;11.10;95.60;;;;;;4845440;29;20041;-75
2023/06/03 04:19:57;;;;;;;0.20;0.20;;;11.10;95.60;;;;;;4842348;29;20076;-74
2023/06/03 04:22:24;;;;;;;0.20;0.20;;;11.10;95.50;;;;;;4839653;29;20061;-75
2023/06/03 04:25:07;;;;;;;0.10;0.10;;;11.10;95.50;;;;;;4841973;29;20041;-74
2023/06/03 04:27:33;;;;;;;0.10;0.10;;;11.10;95.50;;;;;;4841417;29;20053;-75
2023/06/03 04:29:58;;;;;;;0.20;0.20;;;11.20;95.60;;;;;;4825958;29;20538;-75
2023/06/03 04:32:24;;;;;;;0.10;0.10;;;11.10;95.50;;;;;;4825733;29;20098;-74
2023/06/03 04:34:54;;;;;;;0.20;0.20;;;11.20;95.50;;;;;;4824110;29;20054;-74
2023/06/03 04:37:21;;;;;;;0.20;0.20;;;11.20;95.50;;;;;;4840753;29;20054;-75
2023/06/03 04:39:48;;;;;;;0.20;0.20;;;11.20;95.60;;;;;;4808861;29;20057;-74
2023/06/03 04:42:15;;;;;;;0.20;0.20;;;11.20;95.50;;;;;;4839249;29;20050;-75
2023/06/03 04:44:42;;;;;;;0.10;0.10;;;11.30;95.50;;;;;;4819574;29;20058;-75
2023/06/03 04:47:11;;;;;;;0.15;0.15;;;11.30;95.60;;;;;;4831762;29;20062;-75
2023/06/03 04:49:40;;;;;;;0.10;0.10;;;11.30;95.60;;;;;;4830228;29;20056;-75
2023/06/03 04:52:09;;;;;;;0.10;0.10;;;11.30;95.60;;;;;;4842856;29;20077;-75
2023/06/03 04:54:42;;;;;;;0.20;0.20;;;11.30;95.70;;;;;;4856510;29;20085;-74
2023/06/03 04:57:08;;;;;;;0.10;0.10;;;11.40;95.80;;;;;;4829600;29;20050;-74
2023/06/03 04:59:34;;;;;;;0.20;0.20;;;11.40;95.90;;;;;;4841088;29;20390;-75
2023/06/03 05:02:00;;;;;;;0.10;0.10;;;11.50;95.90;;;;;;4813259;29;20054;-75
2023/06/03 05:04:29;;;;;;;0.10;0.10;;;11.50;95.90;;;;;;4821406;29;20053;-74
2023/06/03 05:07:00;;;;;;;0.17;0.17;;;11.50;96.00;;;;;;4822673;29;20125;-76
2023/06/03 05:09:26;;;;;;;0.20;0.20;;;11.60;96.00;;;;;;4815404;29;20103;-76
2023/06/03 05:11:52;;;;;;;0.20;0.20;;;11.70;96.10;;;;;;4839918;29;20058;-75
2023/06/03 05:14:18;;;;;;;0.10;0.10;;;11.60;96.10;;;;;;4843821;29;20077;-75
2023/06/03 05:16:43;;;;;;;0.20;0.20;;;11.70;96.10;;;;;;4842351;29;20106;-76
2023/06/03 05:19:09;;;;;;;0.20;0.20;;;11.80;96.10;;;;;;4839431;29;20132;-76
2023/06/03 05:21:35;;;;;;;0.17;0.17;;;11.70;96.00;;;;;;4831062;29;20051;-75
2023/06/03 05:24:00;;;;;;;0.20;0.20;;;11.80;96.20;;;;;;4842861;29;20422;-76
2023/06/03 05:26:26;;;;;;;0.20;0.20;;;11.80;96.20;;;;;;4823490;29;20058;-76
2023/06/03 05:28:52;;;;;;;0.20;0.20;;;12.10;96.30;;;;;;4839168;29;20046;-75
2023/06/03 05:31:18;;;;;;;0.20;0.20;;;11.90;96.30;;;;;;4831444;29;20621;-75
2023/06/03 05:33:43;;;;;;;0.10;0.10;;;12.00;96.40;;;;;;4836213;29;20068;-75
2023/06/03 05:36:10;;;;;;;0.10;0.10;;;12.00;96.30;;;;;;4820496;29;20129;-76
2023/06/03 05:38:36;;;;;;;0.20;0.20;;;12.10;96.40;;;;;;4824483;29;20061;-75
2023/06/03 05:41:03;;;;;;;0.10;0.10;;;12.10;96.30;;;;;;4826765;29;20058;-76
2023/06/03 05:43:32;;;;;;;0.17;0.17;;;12.10;96.30;;;;;;4836586;29;20149;-75
2023/06/03 05:45:58;;;;;;;0.10;0.10;;;12.20;96.40;;;;;;4834474;29;20132;-76
2023/06/03 05:48:24;;;;;;;0.20;0.20;;;12.20;96.30;;;;;;4837516;29;20042;-76
2023/06/03 05:50:54;;;;;;;0.20;0.20;;;12.20;96.20;;;;;;4839225;29;20045;-76
2023/06/03 05:53:28;;;;;;;0.13;0.13;;;12.30;96.10;;;;;;4837007;29;20050;-76
2023/06/03 05:55:54;;;;;;;0.20;0.20;;;12.40;96.10;;;;;;4850916;29;20061;-76
2023/06/03 05:58:21;;;;;;;0.20;0.20;;;12.40;96.10;;;;;;4833911;29;20045;-76
2023/06/03 06:00:47;;;;;;;0.10;0.10;;;12.50;96.00;;;;;;4841072;29;20055;-76
2023/06/03 06:03:13;;;;;;;0.20;0.20;;;12.50;95.90;;;;;;4832939;29;20046;-76
2023/06/03 06:05:39;;;;;;;0.20;0.20;;;12.60;95.80;;;;;;4839708;29;20486;-75
2023/06/03 06:08:05;;;;;;;0.20;0.20;;;12.60;95.70;;;;;;4838667;29;20045;-76
2023/06/03 06:10:31;;;;;;;0.10;0.10;;;12.70;95.70;;;;;;4837588;29;20050;-75
2023/06/03 06:12:57;;;;;;;0.20;0.20;;;12.70;95.60;;;;;;4835922;29;20106;-76
2023/06/03 06:15:22;;;;;;;0.20;0.20;;;12.70;95.80;;;;;;4839314;29;20049;-76
2023/06/03 06:17:48;;;;;;;0.20;0.20;;;12.80;95.50;;;;;;4837060;29;20062;-76
2023/06/03 06:20:14;;;;;;;0.20;0.20;;;12.90;95.40;;;;;;4834092;29;20082;-76
2023/06/03 06:22:40;;;;;;;0.10;0.10;;;13.00;95.30;;;;;;4838566;29;20100;-76
2023/06/03 06:25:06;;;;;;;0.20;0.20;;;13.00;95.20;;;;;;4840898;29;20429;-76
2023/06/03 06:27:33;;;;;;;0.10;0.10;;;13.00;95.20;;;;;;4822371;29;20058;-75
2023/06/03 06:29:58;;;;;;;0.10;0.10;;;13.10;95.10;;;;;;4840596;29;20056;-76
2023/06/03 06:32:25;;;;;;;0.17;0.17;;;13.20;95.10;;;;;;4823300;29;20050;-75
2023/06/03 06:34:54;;;;;;;0.10;0.10;;;13.20;95.10;;;;;;4833953;29;20049;-76
2023/06/03 06:37:21;;;;;;;0.17;0.17;;;13.20;95.20;;;;;;4815570;29;20380;-76
2023/06/03 06:39:53;;;;;;;0.20;0.20;;;13.30;95.30;;;;;;4842094;29;20057;-76
2023/06/03 06:42:36;;;;;;;0.10;0.10;;;13.40;95.10;;;;;;4829660;29;20058;-76
2023/06/03 06:45:13;;;;;;;0.10;0.10;;;13.50;95.20;;;;;;4839021;29;20721;-76
2023/06/03 06:47:40;;;;;;;0.20;0.20;;;13.50;95.20;;;;;;4843341;29;20051;-75
2023/06/03 06:50:15;;;;;;;0.20;0.20;;;13.50;95.20;;;;;;4836378;29;20056;-76
2023/06/03 06:52:41;;;;;;;0.20;0.20;;;13.60;95.20;;;;;;4825831;29;20117;-76
2023/06/03 06:55:33;;;;;;;0.20;0.20;;;13.70;95.20;;;;;;4846809;29;20050;-76
2023/06/03 06:57:58;;;;;;;0.10;0.10;;;13.70;95.20;;;;;;4821949;29;20046;-76
2023/06/03 07:00:27;;;;;;;0.20;0.20;;;13.80;95.30;;;;;;4839340;29;20049;-77
2023/06/03 07:02:53;;;;;;;0.10;0.10;;;13.90;95.20;;;;;;4832438;29;20514;-76
2023/06/03 07:05:18;;;;;;;0.10;0.10;;;13.90;94.80;;;;;;4843840;29;20049;-76
2023/06/03 07:07:47;;;;;;;0.20;0.20;;;14.00;94.80;;;;;;4839910;29;20490;-77
2023/06/03 07:10:13;;;;;;;0.10;0.10;;;14.10;94.70;;;;;;4842779;29;20103;-78
2023/06/03 07:12:39;;;;;;;0.20;0.20;;;14.20;94.50;;;;;;4842591;29;20046;-76
2023/06/03 07:15:05;;;;;;;0.13;0.13;;;14.20;94.30;;;;;;4821214;29;20129;-76
2023/06/03 07:17:31;;;;;;;0.20;0.20;;;14.30;94.50;;;;;;4838616;29;20088;-76
2023/06/03 07:19:57;;;;;;;0.10;0.10;;;14.40;94.40;;;;;;4840349;29;20382;-76
2023/06/03 07:22:23;;;;;;;0.17;0.17;;;14.50;94.50;;;;;;4841811;29;20525;-76
2023/06/03 07:24:48;;;;;;;0.20;0.20;;;14.60;94.50;;;;;;4840932;29;20050;-76
2023/06/03 07:27:26;;;;;;;0.20;0.20;;;14.80;94.30;;;;;;4841561;29;20081;-76
2023/06/03 07:29:56;;;;;;;0.20;0.20;;;14.80;94.20;;;;;;4835719;29;20077;-76
2023/06/03 07:32:24;;;;;;;0.13;0.13;;;14.90;93.90;;;;;;4827666;29;20762;-75
2023/06/03 07:34:50;;;;;;;0.20;0.20;;;14.90;93.90;;;;;;4822868;29;20053;-76
2023/06/03 07:37:17;;;;;;;0.10;0.10;;;15.00;93.80;;;;;;4840541;29;20065;-76
2023/06/03 07:39:43;;;;;;;0.10;0.10;;;15.00;93.60;;;;;;4825193;29;20437;-77
2023/06/03 07:42:20;;;;;;;0.20;0.20;;;15.00;93.50;;;;;;4821127;29;20050;-76
2023/06/03 07:44:48;;;;;;;0.20;0.20;;;15.00;93.30;;;;;;4835663;29;20522;-77
2023/06/03 07:47:16;;;;;;;0.13;0.13;;;15.10;93.20;;;;;;4814916;29;20054;-77
2023/06/03 07:49:47;;;;;;;0.20;0.20;;;15.00;93.10;;;;;;4836310;29;20125;-76
2023/06/03 07:52:17;;;;;;;0.20;0.20;;;15.10;93.20;;;;;;4840405;29;20042;-77
2023/06/03 07:54:43;;;;;;;0.10;0.10;;;15.10;92.90;;;;;;4830201;29;20515;-77
2023/06/03 07:57:12;;;;;;;0.20;0.20;;;15.10;92.80;;;;;;4839627;29;20098;-77
2023/06/03 07:59:38;;;;;;;0.20;0.20;;;15.10;92.80;;;;;;4835844;29;20081;-76
2023/06/03 08:02:09;;;;;;;0.10;0.10;;;15.10;92.90;;;;;;4812449;29;20149;-77
2023/06/03 08:04:35;;;;;;;0.10;0.10;;;15.10;92.80;;;;;;4830334;29;20102;-76
2023/06/03 08:07:02;;;;;;;0.20;0.20;;;15.10;92.90;;;;;;4824627;29;20610;-77
2023/06/03 08:09:37;;;;;;;0.10;0.10;;;15.10;92.90;;;;;;4841578;29;20058;-77
2023/06/03 08:12:08;;;;;;;0.20;0.20;;;15.10;93.00;;;;;;4840440;29;20053;-77
2023/06/03 08:14:35;;;;;;;0.20;0.20;;;15.20;93.00;;;;;;4834761;29;20086;-76
2023/06/03 08:17:12;;;;;;;0.15;0.15;;;15.10;92.90;;;;;;4838624;29;20554;-77
2023/06/03 08:19:39;;;;;;;0.20;0.20;;;15.20;92.80;;;;;;4816335;29;20065;-77
2023/06/03 08:22:30;;;;;;;0.10;0.10;;;15.20;92.80;;;;;;4823131;29;20049;-77
2023/06/03 08:24:56;;;;;;;0.10;0.10;;;15.20;92.90;;;;;;4797008;29;20790;-77
2023/06/03 08:27:22;;;;;;;0.17;0.17;;;15.20;92.90;;;;;;4840406;29;20034;-76
2023/06/03 08:29:47;;;;;;;0.10;0.10;;;15.20;92.80;;;;;;4842647;29;20045;-77
2023/06/03 08:32:13;;;;;;;0.10;0.10;;;15.20;92.60;;;;;;4846249;29;20057;-77
2023/06/03 08:34:38;;;;;;;0.10;0.10;;;15.30;92.60;;;;;;4838335;29;20124;-77
2023/06/03 08:37:06;;;;;;;0.20;0.20;;;15.30;92.30;;;;;;4816747;29;20137;-77
2023/06/03 08:39:31;;;;;;;0.20;0.20;;;15.40;92.50;;;;;;4846715;29;20272;-77
2023/06/03 08:42:05;;;;;;;0.20;0.20;;;15.40;92.40;;;;;;4824668;29;20140;-77
2023/06/03 08:44:54;;;;;;;0.20;0.20;;;15.40;92.40;;;;;;4840174;29;20426;-77
2023/06/03 08:47:58;;;;;;;0.10;0.10;;;15.50;92.40;;;;;;4830225;29;20407;-77
2023/06/03 08:50:26;;;;;;;0.20;0.20;;;15.60;92.40;;;;;;4822391;29;20133;-77
2023/06/03 08:52:53;;;;;;;0.20;0.20;;;15.70;92.10;;;;;;4840505;29;20414;-78
2023/06/03 08:55:20;;;;;;;0.20;0.20;;;15.80;92.10;;;;;;4822754;29;20447;-77
2023/06/03 08:57:53;;;;;;;0.20;0.20;;;15.80;91.80;;;;;;4834250;29;20049;-76
2023/06/03 09:00:23;;;;;;;0.10;0.10;;;15.90;91.50;;;;;;4840750;29;20045;-77
2023/06/03 09:02:50;;;;;;;0.20;0.20;;;15.90;91.30;;;;;;4819697;29;20068;-77
2023/06/03 09:05:16;;;;;;;0.17;0.17;;;15.90;91.10;;;;;;4833722;29;20378;-78
2023/06/03 09:07:45;;;;;;;0.10;0.10;;;16.00;91.10;;;;;;4830946;29;20064;-77
2023/06/03 09:10:12;;;;;;;0.20;0.20;;;18.50;91.20;;;;;;4829091;29;20397;-77
2023/06/03 09:12:38;;;;;;;0.20;0.20;;;16.10;90.80;;;;;;4810840;29;20447;-78
2023/06/03 09:15:05;;;;;;;0.10;0.10;;;16.20;90.40;;;;;;4828089;29;20050;-76
2023/06/03 09:17:31;;;;;;;0.20;0.20;;;16.20;90.00;;;;;;4815857;29;20081;-77
2023/06/03 09:20:01;;;;;;;0.20;0.20;;;16.30;89.90;;;;;;4832884;29;20058;-77
2023/06/03 09:22:28;;;;;;;0.20;0.20;;;16.40;90.00;;;;;;4820834;29;20097;-79
2023/06/03 09:24:54;;;;;;;0.10;0.10;;;16.40;89.90;;;;;;4836240;29;20068;-77
2023/06/03 09:27:20;;;;;;;0.20;0.20;;;16.50;89.40;;;;;;4819314;29;20494;-78
2023/06/03 09:29:45;;;;;;;0.20;0.20;;;16.60;89.30;;;;;;4837252;29;20038;-78
2023/06/03 09:32:11;;;;;;;0.20;0.20;;;16.60;88.70;;;;;;4846074;29;20060;-78
2023/06/03 09:34:37;;;;;;;0.20;0.20;;;16.70;88.30;;;;;;4817965;29;20076;-78
2023/06/03 09:37:09;;;;;;;0.15;0.15;;;16.70;88.10;;;;;;4826104;29;20057;-79
2023/06/03 09:39:36;;;;;;;0.20;0.20;;;16.80;88.70;;;;;;4836811;29;20042;-79
2023/06/03 09:42:03;;;;;;;0.20;0.20;;;16.80;87.70;;;;;;4821080;29;20058;-78
2023/06/03 09:44:42;;;;;;;0.20;0.20;;;16.90;87.70;;;;;;4837964;29;20550;-77
2023/06/03 09:47:09;;;;;;;0.10;0.10;;;16.90;87.10;;;;;;4832923;29;20053;-77
2023/06/03 09:49:35;;;;;;;0.10;0.10;;;17.00;87.20;;;;;;4826883;29;20709;-78
2023/06/03 09:52:03;;;;;;;0.20;0.20;;;17.10;87.10;;;;;;4823537;29;20068;-79
2023/06/03 09:54:29;;;;;;;0.20;0.20;;;17.10;86.50;;;;;;4837838;29;20050;-77
2023/06/03 09:57:11;;;;;;;0.20;0.20;;;17.10;86.60;;;;;;4835083;29;20048;-77
2023/06/03 09:59:41;;;;;;;0.10;0.10;;;17.20;86.60;;;;;;4835933;29;20121;-78
2023/06/03 10:02:13;;;;;;;0.20;0.20;;;17.20;85.90;;;;;;4819862;29;20064;-78
2023/06/03 10:04:41;;;;;;;0.20;0.20;;;17.30;85.30;;;;;;4817363;29;20349;-78
2023/06/03 10:07:09;;;;;;;0.20;0.20;;;17.30;85.50;;;;;;4836326;29;20050;-78
2023/06/03 10:09:36;;;;;;;0.10;0.10;;;17.40;85.50;;;;;;4839331;29;20046;-79
2023/06/03 10:12:02;;;;;;;0.20;0.20;;;17.40;85.70;;;;;;4821380;29;20062;-78
2023/06/03 10:14:29;;;;;;;0.32;0.32;;;17.50;84.30;;;;;;4835700;29;20042;-78
2023/06/03 10:17:10;;;;;;;0.20;0.20;;;17.50;84.30;;;;;;4838649;29;20046;-78
2023/06/03 10:19:41;;;;;;;0.20;0.20;;;17.50;84.50;;;;;;4812888;29;20064;-77
2023/06/03 10:22:09;;;;;;;0.20;0.20;;;17.60;84.90;;;;;;4839655;29;20050;-77
2023/06/03 10:24:40;;;;;;;0.20;0.20;;;17.60;85.70;;;;;;4835544;29;20054;-76
2023/06/03 10:27:06;;;;;;;0.20;0.20;;;17.70;84.60;;;;;;4839130;29;20253;-78
2023/06/03 10:29:33;;;;;;;0.20;0.20;;;17.70;83.90;;;;;;4829594;29;20180;-77
2023/06/03 10:32:05;;;;;;;0.20;0.20;;;17.70;84.00;;;;;;4816636;29;20301;-77
2023/06/03 10:34:34;;;;;;;0.20;0.20;;;17.80;84.50;;;;;;4835022;29;20045;-78
2023/06/03 10:37:03;;;;;;;0.20;0.20;;;17.80;83.60;;;;;;4835382;29;20426;-78
2023/06/03 10:39:31;;;;;;;0.20;0.20;;;17.90;83.70;;;;;;4823146;29;20106;-77
2023/06/03 10:41:59;;;;;;;0.15;0.15;;;17.90;83.30;;;;;;4817253;29;20078;-78
2023/06/03 10:44:25;;;;;;;0.20;0.20;;;18.00;82.80;;;;;;4829654;29;20044;-77
2023/06/03 10:47:03;;;;;;;0.20;0.20;;;18.00;82.90;;;;;;4834459;29;20517;-77
2023/06/03 10:49:36;;;;;;;0.10;0.10;;;18.10;82.80;;;;;;4816540;29;20058;-77
2023/06/03 10:52:24;;;;;;;0.20;0.20;;;18.20;82.50;;;;;;4814875;29;20050;-77
2023/06/03 10:55:07;;;;;;;0.20;0.20;;;18.20;82.60;;;;;;4834839;29;20145;-77
2023/06/03 10:57:45;;;;;;;0.20;0.20;;;18.20;83.10;;;;;;4832394;29;20599;-77
2023/06/03 11:00:12;;;;;;;0.20;0.20;;;18.30;83.60;;;;;;4822817;29;20061;-76
2023/06/03 11:03:04;;;;;;;0.20;0.20;;;18.40;83.40;;;;;;4834950;29;20054;-77
2023/06/03 11:05:30;;;;;;;0.10;0.10;;;18.50;82.10;;;;;;4830523;29;20046;-77
2023/06/03 11:07:55;;;;;;;0.10;0.10;;;18.60;82.10;;;;;;4830486;29;20045;-77
2023/06/03 11:10:36;;;;;;;0.17;0.17;;;18.60;82.10;;;;;;4819881;29;20053;-77
2023/06/03 11:13:06;;;;;;;0.10;0.10;;;18.70;82.00;;;;;;4812450;29;20152;-78
2023/06/03 11:16:00;;;;;;;0.10;0.10;;;18.70;81.40;;;;;;4836866;29;20126;-76
2023/06/03 11:18:30;;;;;;;0.20;0.20;;;18.80;80.80;;;;;;4831801;29;20046;-77
2023/06/03 11:20:57;;;;;;;0.15;0.15;;;18.80;80.90;;;;;;4836967;29;20133;-77
2023/06/03 11:23:42;;;;;;;0.10;0.10;;;;;;;;;;4836772;29;20062;-79
2023/06/03 11:26:33;;;;;;;0.20;0.20;;;18.90;79.90;;;;;;4814653;29;20101;-76
2023/06/03 11:28:59;;;;;;;;;;;19.00;80.40;;;;;;4835512;29;20069;-78
2023/06/03 11:31:27;;;;;;;0.20;0.20;;;19.10;80.40;;;;;;4821100;29;21868;-77
2023/06/03 11:34:17;;;;;;;0.20;0.20;;;19.20;80.00;;;;;;4817048;29;20065;-76
2023/06/03 11:36:50;;;;;;;0.20;0.20;;;19.30;79.60;;;;;;4833401;29;20498;-78
2023/06/03 11:39:16;;;;;;;0.20;0.20;;;19.40;79.70;;;;;;4831258;29;20053;-78
2023/06/03 11:42:05;;;;;;;0.20;0.20;;;19.40;79.90;;;;;;4829625;29;20526;-75
2023/06/03 11:44:31;;;;;;;0.10;0.10;;;19.60;79.00;;;;;;4803788;29;20053;-74
2023/06/03 11:46:56;;;;;;;0.20;0.20;;;19.60;79.10;;;;;;4834724;29;20129;-76
2023/06/03 11:49:23;;;;;;;0.20;0.20;;;19.70;79.40;;;;;;4818378;29;20591;-75
2023/06/03 11:51:59;;;;;;;0.20;0.20;;;19.80;80.00;;;;;;4833793;29;20071;-75
2023/06/03 11:54:25;;;;;;;0.10;0.10;;;19.90;79.10;;;;;;4822957;29;20049;-75
2023/06/03 11:56:51;;;;;;;0.20;0.20;;;19.90;79.80;;;;;;4838616;29;20046;-76
2023/06/03 11:59:44;;;;;;;0.20;0.20;;;20.10;80.00;;;;;;4824692;29;20455;-76
2023/06/03 12:02:10;;;;;;;0.20;0.20;;;20.20;79.60;;;;;;4824582;29;20052;-75
2023/06/03 12:04:36;;;;;;;0.20;0.20;;;20.30;78.90;;;;;;4839931;29;20068;-76
2023/06/03 12:07:09;;;;;;;0.10;0.10;;;20.30;78.40;;;;;;4840295;29;20050;-75
2023/06/03 12:09:35;;;;;;;0.20;0.20;;;20.40;76.30;;;;;;4840877;29;20049;-75
2023/06/03 12:12:06;;;;;;;0.20;0.20;;;20.40;76.70;;;;;;4840005;29;20053;-75
2023/06/03 12:14:33;;;;;;;0.20;0.20;;;20.40;76.10;;;;;;4823688;29;20415;-75
2023/06/03 12:17:15;;;;;;;0.20;0.20;;;20.40;76.30;;;;;;4824030;29;20053;-75
2023/06/03 12:19:51;;;;;;;0.20;0.20;;;20.50;77.10;;;;;;4840334;29;20046;-75
2023/06/03 12:22:28;;;;;;;0.20;0.20;;;20.50;77.10;;;;;;4837976;29;20061;-75
2023/06/03 12:24:54;;;;;;;0.20;0.20;;;20.60;76.20;;;;;;4841100;29;20142;-75
2023/06/03 12:27:25;;;;;;;0.20;0.20;;;20.60;76.70;;;;;;4839033;29;20125;-75
2023/06/03 12:29:52;;;;;;;;;;;20.70;76.80;;;;;;4828814;29;20057;-76
2023/06/03 12:32:18;;;;;;;0.20;0.20;;;20.80;77.60;;;;;;4840965;29;20093;-75
2023/06/03 12:34:45;;;;;;;0.20;0.20;;;20.90;77.60;;;;;;4819233;29;20050;-76
2023/06/03 12:37:13;;;;;;;0.20;0.20;;;21.00;77.50;;;;;;4806509;29;20055;-75
2023/06/03 12:39:46;;;;;;;0.20;0.20;;;21.10;77.10;;;;;;4822430;29;20057;-75
2023/06/03 12:42:12;;;;;;;0.20;0.20;;;21.10;76.60;;;;;;4827418;29;20080;-75
2023/06/03 12:44:46;;;;;;;0.20;0.20;;;21.10;77.10;;;;;;4840721;29;20396;-75
2023/06/03 12:47:14;;;;;;;0.20;0.20;;;21.20;76.90;;;;;;4839643;29;20045;-75
2023/06/03 12:49:40;;;;;;;0.20;0.20;;;21.20;77.00;;;;;;4837915;29;20064;-76
2023/06/03 12:52:19;;;;;;;0.20;0.20;;;21.30;76.50;;;;;;4821198;29;20049;-76
2023/06/03 12:54:50;;;;;;;0.20;0.20;;;21.40;75.80;;;;;;4839810;29;20137;-75
2023/06/03 12:57:17;;;;;;;0.35;0.30;;;21.40;75.70;;;;;;4822268;29;20054;-76